createdAt,value
2022-09-22T00:01:37.416Z,94675.00
2022-09-22T00:04:12.989Z,94657.00
2022-09-22T00:06:47.571Z,94666.00
2022-09-22T00:09:20.507Z,94660.00
2022-09-22T00:11:52.930Z,94658.00
2022-09-22T00:14:28.514Z,94666.00
2022-09-22T00:17:03.539Z,94655.00
2022-09-22T00:19:34.411Z,94662.00
2022-09-22T00:22:01.323Z,94654.00
2022-09-22T00:24:29.380Z,94658.00
2022-09-22T00:26:59.299Z,94658.00
2022-09-22T00:29:28.286Z,94660.00
2022-09-22T00:32:00.359Z,94642.00
2022-09-22T00:34:32.501Z,94641.00
2022-09-22T00:37:02.357Z,94643.00
2022-09-22T00:39:30.796Z,94637.00
2022-09-22T00:42:00.808Z,94640.00
2022-09-22T00:44:37.739Z,94641.00
2022-09-22T00:47:42.286Z,94646.00
2022-09-22T00:50:23.973Z,94644.00
2022-09-22T00:53:10.167Z,94639.00
2022-09-22T00:55:39.751Z,94641.00
2022-09-22T00:58:17.390Z,94641.00
2022-09-22T01:00:46.691Z,94629.00
2022-09-22T01:03:19.558Z,94629.00
2022-09-22T01:05:53.596Z,94618.00
2022-09-22T01:08:26.991Z,94618.00
2022-09-22T01:10:57.441Z,94609.00
2022-09-22T01:13:46.165Z,94617.00
2022-09-22T01:16:45.247Z,94616.00
2022-09-22T01:19:56.951Z,94614.00
2022-09-22T01:23:20.147Z,94609.00
2022-09-22T01:26:31.196Z,94607.00
2022-09-22T01:29:38.869Z,94609.00
2022-09-22T01:32:31.609Z,94595.00
2022-09-22T01:35:20.847Z,94600.00
2022-09-22T01:38:11.557Z,94597.00
2022-09-22T01:40:42.779Z,94595.00
2022-09-22T01:43:47.897Z,94596.00
2022-09-22T01:46:25.245Z,94591.00
2022-09-22T01:48:54.551Z,94592.00
2022-09-22T01:51:45.144Z,94583.00
2022-09-22T01:54:31.426Z,94584.00
2022-09-22T01:57:21.411Z,94580.00
2022-09-22T01:59:53.783Z,94584.00
2022-09-22T02:03:08.653Z,94588.00
2022-09-22T02:05:44.195Z,94596.00
2022-09-22T02:08:21.788Z,94592.00
2022-09-22T02:10:52.823Z,94583.00
2022-09-22T02:13:19.923Z,94588.00
2022-09-22T02:16:02.207Z,94592.00
2022-09-22T02:18:47.288Z,94593.00
2022-09-22T02:21:15.711Z,94591.00
2022-09-22T02:23:44.521Z,94590.00
2022-09-22T02:26:23.710Z,94592.00
2022-09-22T02:29:00.838Z,94591.00
2022-09-22T02:31:34.384Z,94600.00
2022-09-22T02:34:03.122Z,94590.00
2022-09-22T02:36:47.701Z,94586.00
2022-09-22T02:39:24.087Z,94600.00
2022-09-22T02:42:24.795Z,94592.00
2022-09-22T02:45:16.217Z,94588.00
2022-09-22T02:47:57.503Z,94589.00
2022-09-22T02:50:29.453Z,94585.00
2022-09-22T02:53:10.271Z,94599.00
2022-09-22T02:55:39.689Z,94589.00
2022-09-22T02:58:11.130Z,94590.00
2022-09-22T03:00:38.028Z,94592.00
2022-09-22T03:03:07.575Z,94593.00
2022-09-22T03:05:34.649Z,94597.00
2022-09-22T03:08:03.982Z,94585.00
2022-09-22T03:10:31.076Z,94596.00
2022-09-22T03:13:15.391Z,94591.00
2022-09-22T03:15:44.264Z,94593.00
2022-09-22T03:18:11.329Z,94586.00
2022-09-22T03:20:40.668Z,94593.00
2022-09-22T03:23:10.430Z,94602.00
2022-09-22T03:25:37.333Z,94591.00
2022-09-22T03:28:06.681Z,94592.00
2022-09-22T03:30:40.307Z,94592.00
2022-09-22T03:33:07.355Z,94585.00
2022-09-22T03:35:34.394Z,94581.00
2022-09-22T03:38:01.359Z,94585.00
2022-09-22T03:40:28.414Z,94580.00
2022-09-22T03:42:55.690Z,94579.00
2022-09-22T03:45:23.370Z,94587.00
2022-09-22T03:47:50.196Z,94588.00
2022-09-22T03:50:17.217Z,94590.00
2022-09-22T03:52:46.588Z,94585.00
2022-09-22T03:55:13.520Z,94589.00
2022-09-22T03:57:43.396Z,94593.00
2022-09-22T04:00:11.387Z,94588.00
2022-09-22T04:02:38.552Z,94588.00
2022-09-22T04:05:06.181Z,94594.00
2022-09-22T04:07:39.922Z,94592.00
2022-09-22T04:10:07.791Z,94592.00
2022-09-22T04:12:34.974Z,94596.00
2022-09-22T04:15:01.853Z,94592.00
2022-09-22T04:17:30.835Z,94589.00
2022-09-22T04:20:00.148Z,94591.00
2022-09-22T04:22:27.047Z,94588.00
2022-09-22T04:24:54.198Z,94589.00
2022-09-22T04:27:21.414Z,94589.00
2022-09-22T04:29:51.449Z,94586.00
2022-09-22T04:32:19.077Z,94586.00
2022-09-22T04:34:51.028Z,94582.00
2022-09-22T04:37:20.341Z,94583.00
2022-09-22T04:39:50.322Z,94580.00
2022-09-22T04:42:19.641Z,94584.00
2022-09-22T04:44:46.856Z,94588.00
2022-09-22T04:47:13.914Z,94589.00
2022-09-22T04:49:40.735Z,94585.00
2022-09-22T04:52:07.967Z,94591.00
2022-09-22T04:54:34.877Z,94599.00
2022-09-22T04:57:02.828Z,94592.00
2022-09-22T04:59:32.061Z,94600.00
2022-09-22T05:02:01.859Z,94597.00
2022-09-22T05:04:29.021Z,94605.00
2022-09-22T05:06:56.026Z,94599.00
2022-09-22T05:09:22.925Z,94599.00
2022-09-22T05:11:52.505Z,94604.00
2022-09-22T05:14:26.191Z,94608.00
2022-09-22T05:16:55.560Z,94602.00
2022-09-22T05:19:24.789Z,94614.00
2022-09-22T05:21:52.021Z,94604.00
2022-09-22T05:24:21.416Z,94607.00
2022-09-22T05:26:48.303Z,94610.00
2022-09-22T05:29:18.166Z,94603.00
2022-09-22T05:31:47.599Z,94611.00
2022-09-22T05:34:14.528Z,94609.00
2022-09-22T05:36:41.374Z,94616.00
2022-09-22T05:39:13.718Z,94609.00
2022-09-22T05:41:42.724Z,94618.00
2022-09-22T05:44:09.594Z,94618.00
2022-09-22T05:46:36.509Z,94612.00
2022-09-22T05:49:07.885Z,94614.00
2022-09-22T05:51:34.677Z,94617.00
2022-09-22T05:54:03.867Z,94611.00
2022-09-22T05:56:38.300Z,94612.00
2022-09-22T05:59:05.158Z,94600.00
2022-09-22T06:01:32.070Z,94611.00
2022-09-22T06:04:01.482Z,94607.00
2022-09-22T06:06:33.354Z,94611.00
2022-09-22T06:09:00.352Z,94605.00
2022-09-22T06:11:29.589Z,94612.00
2022-09-22T06:13:58.614Z,94613.00
2022-09-22T06:16:25.562Z,94611.00
2022-09-22T06:18:57.491Z,94609.00
2022-09-22T06:21:26.517Z,94604.00
2022-09-22T06:23:53.401Z,94610.00
2022-09-22T06:26:20.236Z,94602.00
2022-09-22T06:28:49.581Z,94603.00
2022-09-22T06:31:16.477Z,94605.00
2022-09-22T06:33:48.654Z,94596.00
2022-09-22T06:36:23.164Z,94594.00
2022-09-22T06:38:54.134Z,94604.00
2022-09-22T06:41:21.037Z,94603.00
2022-09-22T06:43:48.807Z,94603.00
2022-09-22T06:46:18.618Z,94605.00
2022-09-22T06:48:45.556Z,94595.00
2022-09-22T06:51:14.746Z,94589.00
2022-09-22T06:53:41.606Z,94598.00
2022-09-22T06:56:10.726Z,94596.00
2022-09-22T06:58:58.720Z,94601.00
2022-09-22T07:01:30.200Z,94602.00
2022-09-22T07:03:59.902Z,94603.00
2022-09-22T07:06:26.974Z,94594.00
2022-09-22T07:08:58.645Z,94598.00
2022-09-22T07:11:25.462Z,94594.00
2022-09-22T07:13:54.664Z,94588.00
2022-09-22T07:16:28.839Z,94599.00
2022-09-22T07:18:58.474Z,94601.00
2022-09-22T07:21:32.921Z,94609.00
2022-09-22T07:24:02.351Z,94600.00
2022-09-22T07:26:37.825Z,94600.00
2022-09-22T07:29:11.495Z,94597.00
2022-09-22T07:31:42.174Z,94589.00
2022-09-22T07:34:09.169Z,94591.00
2022-09-22T07:36:38.336Z,94591.00
2022-09-22T07:39:08.318Z,94593.00
2022-09-22T07:41:44.265Z,94594.00
2022-09-22T07:44:32.954Z,94593.00
2022-09-22T07:47:04.728Z,94582.00
2022-09-22T07:49:32.187Z,94583.00
2022-09-22T07:51:59.436Z,94579.00
2022-09-22T07:54:29.375Z,94572.00
2022-09-22T07:56:58.739Z,94585.00
2022-09-22T07:59:29.204Z,94579.00
2022-09-22T08:01:56.314Z,94584.00
2022-09-22T08:04:23.730Z,94577.00
2022-09-22T08:06:58.280Z,94568.00
2022-09-22T08:09:26.049Z,94575.00
2022-09-22T08:11:58.055Z,94575.00
2022-09-22T08:14:27.759Z,94578.00
2022-09-22T08:16:54.562Z,94577.00
2022-09-22T08:19:33.819Z,94569.00
2022-09-22T08:22:05.229Z,94567.00
2022-09-22T08:24:32.016Z,94568.00
2022-09-22T08:26:58.857Z,94566.00
2022-09-22T08:29:32.816Z,94561.00
2022-09-22T08:31:59.628Z,94572.00
2022-09-22T08:34:26.711Z,94561.00
2022-09-22T08:36:53.556Z,94566.00
2022-09-22T08:39:20.478Z,94561.00
2022-09-22T08:41:50.259Z,94559.00
2022-09-22T08:44:28.203Z,94558.00
2022-09-22T08:47:03.124Z,94559.00
2022-09-22T08:50:07.965Z,94550.00
2022-09-22T08:52:49.248Z,94559.00
2022-09-22T08:55:25.932Z,94559.00
2022-09-22T08:58:08.667Z,94551.00
2022-09-22T09:00:45.502Z,94556.00
2022-09-22T09:03:41.020Z,94545.00
2022-09-22T09:06:20.823Z,94547.00
2022-09-22T09:09:05.799Z,94548.00
2022-09-22T09:11:46.106Z,94544.00
2022-09-22T09:14:30.404Z,94547.00
2022-09-22T09:17:15.151Z,94539.00
2022-09-22T09:20:01.303Z,94548.00
2022-09-22T09:22:42.687Z,94537.00
2022-09-22T09:25:40.702Z,94546.00
2022-09-22T09:28:25.369Z,94552.00
2022-09-22T09:31:04.680Z,94544.00
2022-09-22T09:34:13.450Z,94545.00
2022-09-22T09:36:48.110Z,94549.00
2022-09-22T09:39:20.795Z,94553.00
2022-09-22T09:41:50.945Z,94549.00
2022-09-22T09:44:28.556Z,94550.00
2022-09-22T09:47:11.608Z,94546.00
2022-09-22T09:49:41.324Z,94538.00
2022-09-22T09:52:15.215Z,94543.00
2022-09-22T09:54:47.512Z,94539.00
2022-09-22T09:57:19.448Z,94541.00
2022-09-22T10:00:34.811Z,94545.00
2022-09-22T10:03:24.175Z,94535.00
2022-09-22T10:06:07.107Z,94528.00
2022-09-22T10:08:44.684Z,94528.00
2022-09-22T10:11:16.038Z,94530.00
2022-09-22T10:13:44.456Z,94519.00
2022-09-22T10:16:23.099Z,94529.00
2022-09-22T10:19:04.881Z,94530.00
2022-09-22T10:21:31.917Z,94534.00
2022-09-22T10:24:01.318Z,94528.00
2022-09-22T10:26:33.557Z,94520.00
2022-09-22T10:29:09.009Z,94534.00
2022-09-22T10:31:39.021Z,94531.00
2022-09-22T10:34:28.806Z,94526.00
2022-09-22T10:36:57.387Z,94519.00
2022-09-22T10:39:58.548Z,94519.00
2022-09-22T10:42:44.209Z,94522.00
2022-09-22T10:45:19.099Z,94528.00
2022-09-22T10:47:56.566Z,94531.00
2022-09-22T10:50:41.499Z,94538.00
2022-09-22T10:53:11.391Z,94533.00
2022-09-22T10:56:14.888Z,94526.00
2022-09-22T10:59:02.743Z,94522.00
2022-09-22T11:01:56.259Z,94530.00
2022-09-22T11:04:57.171Z,94518.00
2022-09-22T11:08:26.533Z,94522.00
2022-09-22T11:11:23.977Z,94525.00
2022-09-22T11:14:42.559Z,94533.00
2022-09-22T11:17:17.995Z,94520.00
2022-09-22T11:20:08.932Z,94522.00
2022-09-22T11:23:24.712Z,94517.00
2022-09-22T11:26:13.150Z,94517.00
2022-09-22T11:29:27.875Z,94510.00
2022-09-22T11:32:26.857Z,94513.00
2022-09-22T11:35:27.118Z,94518.00
2022-09-22T11:38:21.356Z,94507.00
2022-09-22T11:41:25.448Z,94504.00
2022-09-22T11:44:16.554Z,94509.00
2022-09-22T11:47:08.441Z,94508.00
2022-09-22T11:50:34.973Z,94499.00
2022-09-22T11:53:54.993Z,94497.00
2022-09-22T11:56:53.954Z,94498.00
2022-09-22T11:59:57.355Z,94494.00
2022-09-22T12:02:28.101Z,94491.00
2022-09-22T12:05:23.339Z,94495.00
2022-09-22T12:08:21.012Z,94488.00
2022-09-22T12:10:50.122Z,94488.00
2022-09-22T12:13:28.044Z,94481.00
2022-09-22T12:16:30.961Z,94478.00
2022-09-22T12:19:15.146Z,94473.00
2022-09-22T12:22:11.909Z,94478.00
2022-09-22T12:24:39.820Z,94480.00
2022-09-22T12:27:24.210Z,94473.00
2022-09-22T12:30:00.613Z,94478.00
2022-09-22T12:32:41.859Z,94486.00
2022-09-22T12:35:20.570Z,94472.00
2022-09-22T12:37:47.496Z,94476.00
2022-09-22T12:40:14.291Z,94474.00
2022-09-22T12:42:50.661Z,94470.00
2022-09-22T12:45:38.237Z,94469.00
2022-09-22T12:48:35.570Z,94458.00
2022-09-22T12:51:41.493Z,94469.00
2022-09-22T12:54:23.654Z,94465.00
2022-09-22T12:57:21.212Z,94455.00
2022-09-22T13:00:07.720Z,94459.00
2022-09-22T13:02:43.501Z,94462.00
2022-09-22T13:05:10.258Z,94459.00
2022-09-22T13:07:44.357Z,94453.00
2022-09-22T13:10:23.349Z,94461.00
2022-09-22T13:13:02.417Z,94461.00
2022-09-22T13:15:57.176Z,94456.00
2022-09-22T13:18:37.843Z,94455.00
2022-09-22T13:21:13.801Z,94458.00
2022-09-22T13:23:55.882Z,94463.00
2022-09-22T13:26:29.188Z,94454.00
2022-09-22T13:29:01.331Z,94460.00
2022-09-22T13:31:28.918Z,94450.00
2022-09-22T13:33:55.798Z,94450.00
2022-09-22T13:36:25.269Z,94458.00
2022-09-22T13:38:55.948Z,94449.00
2022-09-22T13:41:29.837Z,94452.00
2022-09-22T13:44:19.787Z,94447.00
2022-09-22T13:46:51.040Z,94442.00
2022-09-22T13:49:42.219Z,94420.00
2022-09-22T13:52:17.745Z,94439.00
2022-09-22T13:54:49.749Z,94437.00
2022-09-22T13:57:31.157Z,94436.00
2022-09-22T14:00:01.416Z,94427.00
2022-09-22T14:02:32.267Z,94432.00
2022-09-22T14:05:08.174Z,94429.00
2022-09-22T14:07:55.144Z,94424.00
2022-09-22T14:10:29.582Z,94426.00
2022-09-22T14:12:56.849Z,94422.00
2022-09-22T14:15:47.542Z,94433.00
2022-09-22T14:18:21.027Z,94425.00
2022-09-22T14:20:48.315Z,94426.00
2022-09-22T14:23:37.611Z,94421.00
2022-09-22T14:26:29.553Z,94424.00
2022-09-22T14:28:59.039Z,94415.00
2022-09-22T14:31:29.424Z,94412.00
2022-09-22T14:34:02.268Z,94414.00
2022-09-22T14:36:29.723Z,94422.00
2022-09-22T14:39:10.078Z,94422.00
2022-09-22T14:41:38.024Z,94413.00
2022-09-22T14:44:48.308Z,94420.00
2022-09-22T14:47:39.109Z,94416.00
2022-09-22T14:50:39.992Z,94412.00
2022-09-22T14:53:14.024Z,94427.00
2022-09-22T14:55:48.177Z,94414.00
2022-09-22T14:58:22.606Z,94427.00
2022-09-22T15:01:25.042Z,94416.00
2022-09-22T15:04:24.062Z,94416.00
2022-09-22T15:06:59.953Z,94418.00
2022-09-22T15:09:40.473Z,94414.00
2022-09-22T15:12:36.630Z,94414.00
2022-09-22T15:15:27.398Z,94408.00
2022-09-22T15:18:16.631Z,94404.00
2022-09-22T15:21:10.894Z,94411.00
2022-09-22T15:23:48.136Z,94407.00
2022-09-22T15:26:25.488Z,94405.00
2022-09-22T15:28:56.039Z,94408.00
2022-09-22T15:31:26.757Z,94408.00
2022-09-22T15:34:01.529Z,94406.00
2022-09-22T15:36:33.339Z,94414.00
2022-09-22T15:39:33.967Z,94411.00
2022-09-22T15:42:06.327Z,94416.00
2022-09-22T15:44:37.862Z,94404.00
2022-09-22T15:47:17.031Z,94403.00
2022-09-22T15:49:46.665Z,94401.00
2022-09-22T15:52:13.546Z,94399.00
2022-09-22T15:54:40.443Z,94392.00
2022-09-22T15:57:07.348Z,94410.00
2022-09-22T15:59:35.141Z,94406.00
2022-09-22T16:02:02.775Z,94409.00
2022-09-22T16:04:32.391Z,94408.00
2022-09-22T16:07:03.981Z,94402.00
2022-09-22T16:09:35.557Z,94410.00
2022-09-22T16:12:10.858Z,94401.00
2022-09-22T16:14:39.495Z,94419.00
2022-09-22T16:17:08.905Z,94411.00
2022-09-22T16:19:38.397Z,94407.00
2022-09-22T16:22:07.559Z,94411.00
2022-09-22T16:24:38.913Z,94408.00
2022-09-22T16:27:07.879Z,94409.00
2022-09-22T16:29:37.322Z,94407.00
2022-09-22T16:32:04.757Z,94401.00
2022-09-22T16:34:31.649Z,94409.00
2022-09-22T16:37:00.768Z,94409.00
2022-09-22T16:39:27.672Z,94412.00
2022-09-22T16:41:56.763Z,94408.00
2022-09-22T16:44:23.642Z,94408.00
2022-09-22T16:46:52.583Z,94406.00
2022-09-22T16:49:21.040Z,94409.00
2022-09-22T16:51:55.029Z,94410.00
2022-09-22T16:54:25.098Z,94413.00
2022-09-22T16:56:54.868Z,94412.00
2022-09-22T16:59:24.920Z,94419.00
2022-09-22T17:01:52.927Z,94412.00
2022-09-22T17:04:20.354Z,94420.00
2022-09-22T17:06:53.588Z,94416.00
2022-09-22T17:09:20.540Z,94423.00
2022-09-22T17:11:57.832Z,94417.00
2022-09-22T17:14:25.849Z,94417.00
2022-09-22T17:16:55.356Z,94421.00
2022-09-22T17:19:31.040Z,94415.00
2022-09-22T17:22:02.752Z,94421.00
2022-09-22T17:24:32.217Z,94422.00
2022-09-22T17:27:01.982Z,94420.00
2022-09-22T17:29:33.164Z,94418.00
2022-09-22T17:32:08.320Z,94424.00
2022-09-22T17:34:36.913Z,94425.00
2022-09-22T17:37:04.811Z,94422.00
2022-09-22T17:39:34.219Z,94420.00
2022-09-22T17:42:01.047Z,94426.00
2022-09-22T17:44:33.476Z,94416.00
2022-09-22T17:47:21.412Z,94426.00
2022-09-22T17:50:25.639Z,94426.00
2022-09-22T17:53:14.334Z,94436.00
2022-09-22T17:55:43.139Z,94429.00
2022-09-22T17:58:10.054Z,94441.00
2022-09-22T18:00:42.454Z,94443.00
2022-09-22T18:03:09.487Z,94440.00
2022-09-22T18:05:38.821Z,94440.00
2022-09-22T18:08:08.094Z,94440.00
2022-09-22T18:10:37.825Z,94444.00
2022-09-22T18:13:09.643Z,94435.00
2022-09-22T18:15:38.588Z,94451.00
2022-09-22T18:18:07.708Z,94444.00
2022-09-22T18:20:34.919Z,94438.00
2022-09-22T18:23:04.032Z,94444.00
2022-09-22T18:25:34.073Z,94440.00
2022-09-22T18:28:01.216Z,94436.00
2022-09-22T18:30:28.370Z,94440.00
2022-09-22T18:32:56.168Z,94453.00
2022-09-22T18:35:28.124Z,94448.00
2022-09-22T18:37:55.080Z,94451.00
2022-09-22T18:40:23.080Z,94449.00
2022-09-22T18:42:55.452Z,94457.00
2022-09-22T18:45:25.150Z,94451.00
2022-09-22T18:48:02.837Z,94456.00
2022-09-22T18:50:34.568Z,94463.00
2022-09-22T18:53:01.515Z,94455.00
2022-09-22T18:55:29.001Z,94472.00
2022-09-22T18:57:58.558Z,94473.00
2022-09-22T19:00:29.908Z,94472.00
2022-09-22T19:02:57.003Z,94475.00
2022-09-22T19:05:24.109Z,94481.00
2022-09-22T19:07:54.831Z,94483.00
2022-09-22T19:10:22.412Z,94473.00
2022-09-22T19:12:54.299Z,94469.00
2022-09-22T19:15:22.325Z,94457.00
2022-09-22T19:17:50.085Z,94455.00
2022-09-22T19:20:22.400Z,94466.00
2022-09-22T19:22:52.581Z,94475.00
2022-09-22T19:25:21.645Z,94461.00
2022-09-22T19:27:50.285Z,94464.00
2022-09-22T19:30:21.851Z,94465.00
2022-09-22T19:32:50.491Z,94467.00
2022-09-22T19:35:22.178Z,94472.00
2022-09-22T19:37:52.036Z,94471.00
2022-09-22T19:40:20.733Z,94472.00
2022-09-22T19:42:54.414Z,94473.00
2022-09-22T19:45:22.047Z,94473.00
2022-09-22T19:47:48.997Z,94478.00
2022-09-22T19:50:16.203Z,94473.00
2022-09-22T19:52:43.073Z,94475.00
2022-09-22T19:55:13.557Z,94467.00
2022-09-22T19:57:41.658Z,94473.00
2022-09-22T20:00:17.981Z,94465.00
2022-09-22T20:02:46.754Z,94469.00
2022-09-22T20:05:20.937Z,94463.00
2022-09-22T20:07:50.902Z,94469.00
2022-09-22T20:10:21.350Z,94466.00
2022-09-22T20:12:49.521Z,94464.00
2022-09-22T20:15:21.078Z,94457.00
2022-09-22T20:17:48.301Z,94464.00
2022-09-22T20:20:25.200Z,94465.00
2022-09-22T20:23:01.006Z,94468.00
2022-09-22T20:25:33.915Z,94470.00
2022-09-22T20:28:01.050Z,94459.00
2022-09-22T20:30:34.981Z,94460.00
2022-09-22T20:33:01.856Z,94459.00
2022-09-22T20:35:31.266Z,94454.00
2022-09-22T20:38:00.300Z,94456.00
2022-09-22T20:40:27.917Z,94462.00
2022-09-22T20:42:57.080Z,94465.00
2022-09-22T20:45:27.201Z,94459.00
2022-09-22T20:47:54.857Z,94447.00
2022-09-22T20:50:21.810Z,94453.00
2022-09-22T20:52:51.599Z,94451.00
2022-09-22T20:55:18.489Z,94458.00
2022-09-22T20:57:50.237Z,94457.00
2022-09-22T21:00:17.190Z,94453.00
2022-09-22T21:02:44.223Z,94450.00
2022-09-22T21:05:11.421Z,94446.00
2022-09-22T21:07:40.609Z,94435.00
2022-09-22T21:10:30.960Z,94441.00
2022-09-22T21:12:58.558Z,94449.00
2022-09-22T21:15:25.499Z,94446.00
2022-09-22T21:17:55.449Z,94444.00
2022-09-22T21:20:24.680Z,94442.00
2022-09-22T21:22:54.653Z,94444.00
2022-09-22T21:25:21.501Z,94438.00
2022-09-22T21:27:51.315Z,94437.00
2022-09-22T21:30:22.819Z,94436.00
2022-09-22T21:32:52.161Z,94434.00
2022-09-22T21:35:21.519Z,94439.00
2022-09-22T21:37:48.392Z,94436.00
2022-09-22T21:40:15.478Z,94423.00
2022-09-22T21:42:44.959Z,94436.00
2022-09-22T21:45:12.900Z,94422.00
2022-09-22T21:47:39.739Z,94435.00
2022-09-22T21:50:07.384Z,94436.00
2022-09-22T21:52:38.394Z,94436.00
2022-09-22T21:55:08.293Z,94433.00
2022-09-22T21:57:35.097Z,94438.00
2022-09-22T22:00:04.778Z,94428.00
2022-09-22T22:02:52.037Z,94426.00
2022-09-22T22:05:18.899Z,94424.00
2022-09-22T22:07:48.065Z,94427.00
2022-09-22T22:10:16.042Z,94433.00
2022-09-22T22:12:43.246Z,94421.00
2022-09-22T22:15:14.806Z,94421.00
2022-09-22T22:17:41.649Z,94403.00
2022-09-22T22:20:11.140Z,94415.00
2022-09-22T22:22:40.648Z,94411.00
2022-09-22T22:25:17.096Z,94419.00
2022-09-22T22:27:46.555Z,94416.00
2022-09-22T22:30:19.012Z,94406.00
2022-09-22T22:32:46.544Z,94415.00
2022-09-22T22:35:13.452Z,94410.00
2022-09-22T22:37:40.363Z,94419.00
2022-09-22T22:40:09.922Z,94435.00
2022-09-22T22:42:36.821Z,94419.00
2022-09-22T22:45:05.280Z,94427.00
2022-09-22T22:47:32.231Z,94421.00
2022-09-22T22:50:01.194Z,94419.00
2022-09-22T22:52:28.012Z,94410.00
2022-09-22T22:54:57.181Z,94405.00
2022-09-22T22:57:23.994Z,94408.00
2022-09-22T22:59:53.928Z,94403.00
2022-09-22T23:02:21.986Z,94404.00
2022-09-22T23:04:51.276Z,94396.00
2022-09-22T23:07:18.191Z,94402.00
2022-09-22T23:09:45.004Z,94408.00
2022-09-22T23:12:12.284Z,94391.00
2022-09-22T23:14:39.342Z,94395.00
2022-09-22T23:17:06.160Z,94394.00
2022-09-22T23:19:36.003Z,94383.00
2022-09-22T23:22:05.685Z,94392.00
2022-09-22T23:24:32.567Z,94387.00
2022-09-22T23:27:02.201Z,94382.00
2022-09-22T23:29:31.514Z,94387.00
2022-09-22T23:32:00.452Z,94388.00
2022-09-22T23:34:29.384Z,94379.00
2022-09-22T23:36:56.450Z,94388.00
2022-09-22T23:39:26.451Z,94396.00
2022-09-22T23:41:53.270Z,94385.00
2022-09-22T23:44:22.437Z,94378.00
2022-09-22T23:46:49.329Z,94371.00
2022-09-22T23:49:18.242Z,94378.00
2022-09-22T23:51:45.334Z,94379.00
2022-09-22T23:54:15.628Z,94387.00
2022-09-22T23:56:45.934Z,94393.00
2022-09-22T23:59:12.968Z,94390.00
